createdAt,value
2023-01-29T00:03:00.080Z,59.96
2023-01-29T00:07:16.369Z,60.30
2023-01-29T00:11:32.544Z,61.04
2023-01-29T00:15:59.057Z,60.58
2023-01-29T00:20:16.013Z,60.21
2023-01-29T00:24:32.522Z,60.58
2023-01-29T00:28:48.916Z,59.57
2023-01-29T00:33:05.674Z,60.06
2023-01-29T00:37:21.864Z,60.31
2023-01-29T00:41:56.752Z,60.29
2023-01-29T00:46:13.098Z,60.63
2023-01-29T00:50:29.414Z,59.72
2023-01-29T00:54:45.614Z,59.68
2023-01-29T00:59:02.051Z,59.74
2023-01-29T01:03:18.333Z,59.72
2023-01-29T01:07:35.015Z,60.35
2023-01-29T01:11:51.911Z,60.04
2023-01-29T01:16:27.264Z,61.27
2023-01-29T01:20:43.865Z,61.85
2023-01-29T01:25:00.032Z,61.74
2023-01-29T01:29:16.188Z,61.07
2023-01-29T01:33:32.369Z,61.47
2023-01-29T01:37:48.599Z,61.95
2023-01-29T01:42:06.435Z,62.24
2023-01-29T01:46:23.603Z,61.58
2023-01-29T01:50:52.982Z,61.06
2023-01-29T01:55:10.222Z,61.56
2023-01-29T01:59:26.547Z,61.62
2023-01-29T02:04:05.708Z,62.04
2023-01-29T02:08:54.442Z,62.77
2023-01-29T02:13:11.592Z,63.04
2023-01-29T02:17:27.900Z,62.61
2023-01-29T02:22:13.890Z,63.15
2023-01-29T02:26:45.074Z,62.41
2023-01-29T02:31:04.307Z,61.82
2023-01-29T02:35:32.193Z,61.29
2023-01-29T02:39:57.172Z,61.40
2023-01-29T02:44:39.091Z,61.15
2023-01-29T02:49:32.527Z,61.36
2023-01-29T02:54:24.566Z,62.42
2023-01-29T02:58:46.275Z,62.65
2023-01-29T03:03:10.317Z,62.04
2023-01-29T03:07:52.256Z,61.55
2023-01-29T03:12:29.369Z,61.17
2023-01-29T03:16:52.164Z,62.65
2023-01-29T03:21:31.632Z,61.98
2023-01-29T03:26:06.721Z,61.46
2023-01-29T03:30:44.591Z,62.33
2023-01-29T03:35:05.432Z,62.41
2023-01-29T03:39:22.354Z,62.82
2023-01-29T03:44:16.087Z,62.55
2023-01-29T03:48:38.031Z,62.31
2023-01-29T03:53:13.158Z,62.35
2023-01-29T03:57:59.689Z,61.72
2023-01-29T04:02:28.279Z,61.86
2023-01-29T04:06:46.739Z,61.53
2023-01-29T04:11:08.557Z,61.17
2023-01-29T04:15:26.519Z,61.87
2023-01-29T04:19:43.131Z,61.73
2023-01-29T04:23:59.523Z,61.40
2023-01-29T04:28:26.898Z,61.49
2023-01-29T04:33:19.469Z,61.76
2023-01-29T04:37:55.319Z,61.63
2023-01-29T04:42:35.488Z,61.53
2023-01-29T04:47:00.485Z,61.97
2023-01-29T04:51:57.999Z,62.30
2023-01-29T04:56:25.938Z,61.95
2023-01-29T05:00:49.149Z,61.75
2023-01-29T05:05:07.059Z,60.75
2023-01-29T05:09:23.712Z,58.48
2023-01-29T05:13:42.053Z,59.89
2023-01-29T05:18:03.264Z,58.77
2023-01-29T05:22:22.915Z,58.74
2023-01-29T05:26:57.734Z,58.50
2023-01-29T05:31:14.041Z,58.95
2023-01-29T05:35:30.731Z,60.67
2023-01-29T05:39:46.943Z,59.49
2023-01-29T05:44:03.467Z,59.55
2023-01-29T05:48:19.676Z,58.92
2023-01-29T05:52:35.928Z,59.54
2023-01-29T05:56:52.157Z,60.00
2023-01-29T06:01:23.100Z,59.74
2023-01-29T06:05:40.161Z,58.18
2023-01-29T06:09:56.372Z,59.92
2023-01-29T06:14:12.546Z,59.83
2023-01-29T06:18:28.712Z,59.09
2023-01-29T06:22:45.043Z,60.98
2023-01-29T06:27:01.146Z,62.10
2023-01-29T06:31:36.704Z,61.09
2023-01-29T06:36:00.869Z,61.30
2023-01-29T06:40:17.355Z,61.52
2023-01-29T06:44:33.673Z,61.43
2023-01-29T06:48:49.858Z,63.68
2023-01-29T06:53:06.014Z,62.26
2023-01-29T06:57:22.728Z,60.95
2023-01-29T07:01:44.619Z,59.93
2023-01-29T07:06:00.918Z,61.24
2023-01-29T07:10:17.499Z,62.33
2023-01-29T07:14:33.965Z,62.11
2023-01-29T07:18:50.160Z,61.78
2023-01-29T07:23:06.592Z,62.38
2023-01-29T07:27:22.847Z,60.82
2023-01-29T07:31:39.056Z,61.39
2023-01-29T07:35:55.470Z,62.79
2023-01-29T07:40:12.196Z,60.64
2023-01-29T07:44:28.371Z,61.25
2023-01-29T07:48:44.575Z,60.72
2023-01-29T07:53:01.127Z,59.50
2023-01-29T07:57:17.356Z,60.90
2023-01-29T08:01:33.548Z,58.66
2023-01-29T08:05:50.163Z,58.09
2023-01-29T08:10:06.636Z,58.12
2023-01-29T08:14:23.187Z,59.08
2023-01-29T08:18:44.246Z,59.22
2023-01-29T08:23:10.421Z,59.31
2023-01-29T08:27:26.598Z,65.69
2023-01-29T08:31:42.897Z,59.83
2023-01-29T08:35:59.019Z,57.09
2023-01-29T08:40:15.630Z,58.67
2023-01-29T08:44:32.090Z,56.80
2023-01-29T08:48:48.218Z,56.46
2023-01-29T08:53:08.079Z,55.78
2023-01-29T08:57:24.302Z,55.28
2023-01-29T09:01:40.547Z,55.26
2023-01-29T09:05:56.728Z,54.89
2023-01-29T09:10:13.623Z,54.75
2023-01-29T09:14:29.772Z,54.75
2023-01-29T09:18:46.006Z,53.57
2023-01-29T09:23:10.412Z,54.59
2023-01-29T09:27:26.627Z,54.70
2023-01-29T09:31:42.892Z,54.45
2023-01-29T09:35:59.543Z,53.15
2023-01-29T09:40:27.084Z,53.07
2023-01-29T09:45:01.465Z,53.12
2023-01-29T09:49:23.985Z,54.03
2023-01-29T09:54:12.101Z,53.37
2023-01-29T09:58:42.654Z,52.72
2023-01-29T10:03:30.148Z,51.97
2023-01-29T10:08:07.000Z,52.23
2023-01-29T10:12:43.733Z,51.65
2023-01-29T10:17:22.004Z,51.67
2023-01-29T10:21:59.519Z,50.92
2023-01-29T10:26:15.709Z,50.92
2023-01-29T10:30:45.164Z,52.40
2023-01-29T10:35:28.428Z,50.55
2023-01-29T10:39:44.612Z,50.89
2023-01-29T10:44:14.288Z,51.10
2023-01-29T10:48:35.389Z,50.13
2023-01-29T10:53:10.321Z,49.46
2023-01-29T10:57:56.929Z,50.30
2023-01-29T11:02:24.068Z,49.69
2023-01-29T11:06:40.280Z,48.82
2023-01-29T11:10:59.288Z,50.08
2023-01-29T11:15:18.448Z,48.63
2023-01-29T11:19:43.195Z,49.09
2023-01-29T11:24:15.544Z,48.82
2023-01-29T11:28:42.292Z,48.39
2023-01-29T11:33:21.990Z,48.36
2023-01-29T11:37:40.132Z,48.60
2023-01-29T11:42:01.848Z,47.33
2023-01-29T11:46:18.010Z,47.06
2023-01-29T11:50:34.608Z,47.00
2023-01-29T11:55:16.504Z,46.18
2023-01-29T11:59:50.152Z,46.25
2023-01-29T12:04:18.832Z,45.65
2023-01-29T12:08:39.673Z,44.79
2023-01-29T12:13:05.944Z,46.37
2023-01-29T12:17:25.786Z,45.04
2023-01-29T12:22:03.739Z,46.22
2023-01-29T12:26:46.408Z,45.29
2023-01-29T12:31:39.530Z,44.96
2023-01-29T12:36:12.417Z,46.20
2023-01-29T12:40:33.534Z,47.70
2023-01-29T12:44:57.661Z,49.07
2023-01-29T12:49:27.529Z,47.85
2023-01-29T12:54:07.580Z,48.19
2023-01-29T12:58:30.247Z,47.75
2023-01-29T13:03:00.004Z,46.91
2023-01-29T13:07:19.738Z,47.00
2023-01-29T13:11:58.745Z,47.62
2023-01-29T13:16:16.033Z,46.15
2023-01-29T13:20:34.189Z,46.39
2023-01-29T13:25:03.720Z,46.23
2023-01-29T13:29:27.924Z,46.52
2023-01-29T13:33:52.245Z,46.24
2023-01-29T13:38:26.095Z,45.93
2023-01-29T13:42:48.049Z,45.07
2023-01-29T13:47:07.907Z,48.63
2023-01-29T13:51:34.502Z,47.38
2023-01-29T13:55:50.831Z,50.14
2023-01-29T14:00:33.120Z,50.79
2023-01-29T14:04:49.385Z,52.88
2023-01-29T14:09:25.438Z,52.82
2023-01-29T14:13:42.696Z,51.50
2023-01-29T14:18:13.462Z,51.06
2023-01-29T14:22:32.088Z,50.94
2023-01-29T14:26:54.455Z,49.31
2023-01-29T14:31:11.435Z,40.01
2023-01-29T14:35:30.778Z,44.08
2023-01-29T14:39:52.653Z,45.12
2023-01-29T14:44:48.518Z,46.41
2023-01-29T14:49:07.925Z,47.17
2023-01-29T14:53:29.924Z,46.99
2023-01-29T14:57:46.273Z,46.39
2023-01-29T15:02:24.298Z,46.33
2023-01-29T15:06:47.789Z,47.67
2023-01-29T15:11:27.040Z,48.54
2023-01-29T15:15:56.593Z,48.45
2023-01-29T15:20:48.780Z,48.03
2023-01-29T15:25:07.922Z,49.31
2023-01-29T15:29:28.185Z,48.86
2023-01-29T15:33:47.367Z,48.32
2023-01-29T15:38:05.858Z,48.54
2023-01-29T15:42:25.872Z,58.00
2023-01-29T15:46:44.195Z,50.73
2023-01-29T15:51:05.551Z,48.53
2023-01-29T15:55:23.932Z,50.35
2023-01-29T15:59:44.370Z,51.00
2023-01-29T16:04:02.681Z,51.04
2023-01-29T16:08:20.749Z,52.06
2023-01-29T16:12:37.847Z,50.51
2023-01-29T16:16:54.065Z,51.85
2023-01-29T16:21:29.458Z,51.72
2023-01-29T16:25:45.923Z,52.53
2023-01-29T16:30:03.162Z,53.37
2023-01-29T16:34:19.644Z,51.73
2023-01-29T16:38:36.411Z,52.13
2023-01-29T16:43:14.095Z,53.72
2023-01-29T16:47:43.397Z,53.51
2023-01-29T16:52:26.469Z,53.46
2023-01-29T16:56:48.079Z,54.03
2023-01-29T17:01:11.638Z,53.05
2023-01-29T17:05:30.489Z,52.40
2023-01-29T17:09:48.999Z,53.52
2023-01-29T17:14:07.272Z,53.24
2023-01-29T17:18:26.187Z,52.55
2023-01-29T17:22:42.834Z,53.85
2023-01-29T17:27:00.717Z,55.06
2023-01-29T17:31:17.054Z,53.48
2023-01-29T17:35:33.344Z,55.55
2023-01-29T17:39:50.793Z,55.71
2023-01-29T17:44:07.024Z,56.55
2023-01-29T17:48:27.977Z,54.89
2023-01-29T17:52:44.098Z,56.21
2023-01-29T17:57:00.256Z,55.32
2023-01-29T18:01:16.901Z,55.66
2023-01-29T18:05:33.566Z,54.45
2023-01-29T18:09:49.718Z,54.37
2023-01-29T18:14:13.521Z,54.63
2023-01-29T18:18:30.722Z,55.88
2023-01-29T18:22:47.382Z,56.27
2023-01-29T18:27:03.513Z,55.48
2023-01-29T18:31:19.691Z,55.27
2023-01-29T18:35:35.926Z,55.12
2023-01-29T18:39:53.263Z,56.41
2023-01-29T18:44:10.997Z,55.60
2023-01-29T18:48:27.238Z,54.03
2023-01-29T18:52:45.145Z,56.10
2023-01-29T18:57:13.371Z,55.46
2023-01-29T19:01:32.594Z,55.87
2023-01-29T19:05:48.793Z,55.37
2023-01-29T19:10:07.042Z,57.16
2023-01-29T19:14:23.218Z,55.75
2023-01-29T19:18:39.644Z,55.76
2023-01-29T19:22:55.785Z,54.65
2023-01-29T19:27:12.606Z,55.89
2023-01-29T19:31:29.017Z,56.57
2023-01-29T19:35:45.743Z,56.29
2023-01-29T19:40:01.933Z,55.76
2023-01-29T19:44:18.277Z,55.47
2023-01-29T19:48:34.518Z,55.39
2023-01-29T19:52:52.578Z,55.21
2023-01-29T19:57:09.183Z,54.82
2023-01-29T20:01:26.096Z,55.18
2023-01-29T20:05:42.176Z,54.50
2023-01-29T20:09:58.386Z,55.51
2023-01-29T20:14:14.628Z,55.97
2023-01-29T20:18:31.334Z,55.80
2023-01-29T20:22:47.488Z,56.99
2023-01-29T20:27:03.866Z,58.22
2023-01-29T20:31:20.148Z,58.23
2023-01-29T20:35:37.432Z,58.35
2023-01-29T20:39:53.568Z,57.55
2023-01-29T20:44:09.874Z,58.54
2023-01-29T20:48:26.345Z,57.61
2023-01-29T20:52:46.828Z,57.43
2023-01-29T20:57:03.163Z,58.27
2023-01-29T21:01:21.010Z,57.93
2023-01-29T21:05:37.120Z,57.29
2023-01-29T21:09:53.271Z,56.93
2023-01-29T21:14:10.091Z,56.86
2023-01-29T21:18:26.540Z,56.30
2023-01-29T21:22:44.137Z,56.40
2023-01-29T21:27:01.659Z,56.33
2023-01-29T21:31:17.885Z,56.85
2023-01-29T21:35:37.146Z,56.98
2023-01-29T21:39:54.087Z,56.59
2023-01-29T21:44:10.846Z,56.16
2023-01-29T21:48:30.833Z,56.49
2023-01-29T21:52:47.596Z,55.81
2023-01-29T21:57:08.505Z,55.49
2023-01-29T22:01:38.043Z,56.19
2023-01-29T22:05:54.767Z,55.41
2023-01-29T22:10:12.321Z,55.29
2023-01-29T22:14:28.824Z,55.67
2023-01-29T22:18:44.930Z,56.13
2023-01-29T22:23:01.060Z,55.93
2023-01-29T22:27:17.501Z,55.65
2023-01-29T22:31:33.845Z,55.38
2023-01-29T22:35:54.910Z,55.33
2023-01-29T22:40:11.667Z,54.71
2023-01-29T22:44:27.821Z,55.70
2023-01-29T22:48:44.040Z,55.52
2023-01-29T22:53:00.381Z,56.49
2023-01-29T22:57:16.685Z,57.12
2023-01-29T23:01:33.177Z,56.46
2023-01-29T23:05:49.289Z,55.85
2023-01-29T23:10:07.136Z,56.37
2023-01-29T23:14:23.458Z,55.77
2023-01-29T23:18:39.852Z,56.30
2023-01-29T23:22:56.188Z,56.48
2023-01-29T23:27:15.052Z,55.47
2023-01-29T23:31:32.206Z,55.64
2023-01-29T23:35:48.516Z,56.07
2023-01-29T23:40:05.006Z,55.63
2023-01-29T23:44:21.254Z,56.52
2023-01-29T23:48:37.426Z,55.83
2023-01-29T23:52:53.661Z,55.85
2023-01-29T23:57:09.840Z,55.00
